Time;durP1;ratioP1;P1;durP2;ratioP2;P2;SDS_P1;SDS_P2;PMS_P1;PMS_P2;Temp;Humidity;BMP_temperature;BMP_pressure;BME280_temperature;BME280_humidity;BME280_pressure;Samples;Min_cycle;Max_cycle;Signal;HPM_P1;HPM_P2
2021/09/30 00:02:23;;;;;;;5.13;3.20;;;;;;;;;;5096799;28;20229;-71
2021/09/30 00:04:50;;;;;;;6.10;4.00;;;;;;;;;;5097285;28;20203;-70
2021/09/30 00:07:17;;;;;;;4.13;3.75;;;;;;;;;;5096647;28;20443;-70
2021/09/30 00:09:46;;;;;;;4.78;3.47;;;;;;;;;;5096855;28;20228;-70
2021/09/30 00:12:17;;;;;;;3.83;3.33;;;;;;;;;;5096894;28;20657;-70
2021/09/30 00:14:50;;;;;;;3.80;3.50;;;;;;;;;;5097136;28;20209;-70
2021/09/30 00:33:54;;;;;;;7.43;3.30;;;;;;;;;;5096818;28;20201;-70
2021/09/30 00:41:57;;;;;;;5.55;3.33;;;;;;;;;;5096149;28;20189;-70
2021/09/30 00:47:28;;;;;;;4.60;4.20;;;;;;;;;;5096030;28;20394;-70
2021/09/30 00:50:06;;;;;;;4.80;4.30;;;;;;;;;;5096448;28;20224;-71
2021/09/30 00:52:38;;;;;;;5.25;4.82;;;;;;;;;;5096585;28;20521;-69
2021/09/30 02:29:53;;;;;;;10.00;5.05;;;;;;;;;;5094493;28;20288;-70
2021/09/30 03:00:08;;;;;;;9.85;6.15;;;;;;;;;;5093902;28;20236;-71
2021/09/30 03:02:36;;;;;;;7.03;5.80;;;;;;;;;;5094127;28;20199;-70
2021/09/30 03:05:03;;;;;;;8.25;5.43;;;;;;;;;;5093827;28;20203;-72
2021/09/30 03:07:32;;;;;;;10.90;6.70;;;;;;;;;;5093791;28;20244;-71
2021/09/30 03:10:00;;;;;;;6.60;5.50;;;;;;;;;;5093578;28;20240;-70
2021/09/30 03:12:29;;;;;;;8.13;5.10;;;;;;;;;;5093665;28;20201;-71
2021/09/30 03:15:04;;;;;;;8.80;6.28;;;;;;;;;;5093358;28;20196;-71
2021/09/30 03:17:42;;;;;;;8.25;6.60;;;;;;;;;;5094011;28;20181;-70
2021/09/30 03:20:27;;;;;;;5.30;4.80;;;;;;;;;;5093275;28;20641;-71
2021/09/30 03:22:55;;;;;;;7.95;5.15;;;;;;;;;;5093359;28;20188;-71
2021/09/30 03:25:22;;;;;;;8.07;5.40;;;;;;;;;;5093233;28;20716;-71
2021/09/30 03:27:49;;;;;;;7.38;5.50;;;;;;;;;;5093179;28;20206;-71
2021/09/30 03:30:17;;;;;;;8.43;6.40;;;;;;;;;;5093040;28;20541;-71
2021/09/30 03:32:44;;;;;;;9.35;6.97;;;;;;;;;;5093488;28;20208;-70
2021/09/30 03:35:12;;;;;;;6.85;5.85;;;;;;;;;;5093166;28;20654;-71
2021/09/30 03:37:39;;;;;;;9.75;6.90;;;;;;;;;;5093105;28;20204;-71
2021/09/30 03:40:09;;;;;;;10.02;6.13;;;;;;;;;;5093698;28;20649;-71
2021/09/30 03:42:36;;;;;;;10.82;7.03;;;;;;;;;;5093725;28;20287;-71
2021/09/30 03:45:03;;;;;;;9.95;7.75;;;;;;;;;;5093345;28;20196;-72
2021/09/30 03:47:30;;;;;;;10.43;6.05;;;;;;;;;;5093803;28;20203;-71
2021/09/30 03:49:58;;;;;;;8.25;6.18;;;;;;;;;;5093975;28;20230;-70
2021/09/30 03:52:30;;;;;;;14.27;7.03;;;;;;;;;;5093319;28;20196;-70
2021/09/30 03:55:17;;;;;;;9.95;6.85;;;;;;;;;;5092993;28;20279;-70
2021/09/30 03:59:05;;;;;;;9.48;6.03;;;;;;;;;;5092882;28;20229;-70
2021/09/30 04:00:36;;;;;;;10.30;6.95;;;;;;;;;;5092897;28;20228;-70
2021/09/30 04:03:03;;;;;;;6.53;5.90;;;;;;;;;;5093345;28;20200;-70
2021/09/30 04:05:30;;;;;;;8.93;6.18;;;;;;;;;;5093132;28;20560;-71
2021/09/30 04:07:57;;;;;;;10.95;6.70;;;;;;;;;;5093384;28;20195;-71
2021/09/30 04:10:25;;;;;;;5.68;5.18;;;;;;;;;;5092830;28;20220;-71
2021/09/30 04:12:53;;;;;;;9.18;6.95;;;;;;;;;;5092782;28;20199;-70
2021/09/30 04:15:20;;;;;;;12.45;7.05;;;;;;;;;;5092733;28;20233;-70
2021/09/30 04:17:48;;;;;;;7.07;6.32;;;;;;;;;;5093244;28;20201;-71
2021/09/30 04:20:17;;;;;;;6.30;5.75;;;;;;;;;;5093013;28;20204;-74
2021/09/30 04:22:44;;;;;;;8.30;5.50;;;;;;;;;;5092693;28;20199;-71
2021/09/30 04:25:12;;;;;;;13.65;6.90;;;;;;;;;;5092921;28;20206;-71
2021/09/30 04:27:39;;;;;;;9.27;6.25;;;;;;;;;;5093125;28;20207;-78
2021/09/30 04:30:09;;;;;;;9.00;5.95;;;;;;;;;;5092511;28;20236;-80
2021/09/30 04:32:36;;;;;;;10.65;5.60;;;;;;;;;;5094849;28;20204;-79
2021/09/30 04:35:03;;;;;;;11.23;5.70;;;;;;;;;;5096025;28;20193;-83
2021/09/30 04:37:31;;;;;;;5.30;4.80;;;;;;;;;;5095372;28;20196;-83
2021/09/30 04:39:58;;;;;;;8.32;5.75;;;;;;;;;;5095822;28;20680;-80
2021/09/30 04:42:25;;;;;;;6.18;5.15;;;;;;;;;;5096040;28;20201;-81
2021/09/30 04:44:52;;;;;;;10.85;5.95;;;;;;;;;;5095717;28;20645;-80
2021/09/30 04:47:21;;;;;;;10.88;5.22;;;;;;;;;;5095708;28;20221;-81
2021/09/30 04:49:48;;;;;;;8.57;5.47;;;;;;;;;;5095886;28;20221;-82
2021/09/30 04:52:15;;;;;;;5.63;4.70;;;;;;;;;;5095831;28;20203;-82
2021/09/30 04:54:42;;;;;;;9.05;6.00;;;;;;;;;;5096416;28;20196;-82
2021/09/30 04:57:09;;;;;;;8.18;4.38;;;;;;;;;;5095639;28;20196;-82
2021/09/30 04:59:37;;;;;;;9.13;5.20;;;;;;;;;;5096792;28;20210;-81
2021/09/30 05:02:04;;;;;;;9.85;5.47;;;;;;;;;;5096000;28;20217;-80
2021/09/30 05:04:32;;;;;;;5.82;5.25;;;;;;;;;;5095876;28;20192;-82
2021/09/30 05:07:00;;;;;;;7.03;5.38;;;;;;;;;;5096095;28;20203;-82
2021/09/30 05:09:28;;;;;;;8.13;5.53;;;;;;;;;;5095861;28;20214;-83
2021/09/30 05:11:58;;;;;;;7.28;5.03;;;;;;;;;;5095586;28;20206;-81
2021/09/30 05:14:25;;;;;;;13.40;5.43;;;;;;;;;;5095355;28;20658;-78
2021/09/30 05:16:52;;;;;;;8.48;5.13;;;;;;;;;;5095374;28;20215;-79
2021/09/30 05:19:19;;;;;;;12.32;4.75;;;;;;;;;;5095581;28;20205;-79
2021/09/30 05:21:49;;;;;;;6.95;5.47;;;;;;;;;;5095721;28;20193;-80
2021/09/30 05:24:17;;;;;;;11.68;6.65;;;;;;;;;;5095986;28;20188;-79
2021/09/30 05:26:44;;;;;;;7.45;5.60;;;;;;;;;;5095295;28;20200;-80
2021/09/30 05:29:11;;;;;;;7.90;5.40;;;;;;;;;;5095467;28;20232;-81
2021/09/30 05:31:38;;;;;;;16.30;5.60;;;;;;;;;;5095655;28;20545;-81
2021/09/30 05:34:05;;;;;;;11.50;5.85;;;;;;;;;;5095812;28;20191;-81
2021/09/30 05:36:32;;;;;;;11.75;6.35;;;;;;;;;;5094948;28;20195;-82
2021/09/30 05:39:01;;;;;;;9.73;6.93;;;;;;;;;;5095038;28;20219;-78
2021/09/30 05:41:31;;;;;;;12.80;7.97;;;;;;;;;;5095986;28;20290;-82
2021/09/30 05:44:05;;;;;;;8.85;6.13;;;;;;;;;;5095766;28;20287;-70
2021/09/30 05:46:36;;;;;;;12.13;5.90;;;;;;;;;;5095052;28;20187;-73
2021/09/30 05:49:04;;;;;;;11.73;6.68;;;;;;;;;;5095359;28;20216;-73
2021/09/30 05:51:31;;;;;;;11.70;5.35;;;;;;;;;;5094876;28;20199;-72
2021/09/30 05:53:58;;;;;;;9.77;6.43;;;;;;;;;;5094735;28;20199;-73
2021/09/30 05:56:28;;;;;;;10.32;5.85;;;;;;;;;;5094685;28;20196;-73
2021/09/30 05:58:55;;;;;;;8.32;6.38;;;;;;;;;;5095068;28;20204;-73
2021/09/30 06:12:44;;;;;;;9.32;5.85;;;;;;;;;;5017317;28;20202;-73
2021/09/30 06:15:15;;;;;;;12.93;5.50;;;;;;;;;;5070957;28;20665;-73
2021/09/30 06:17:44;;;;;;;9.85;5.93;;;;;;;;;;5094937;28;20223;-73
2021/09/30 06:20:12;;;;;;;12.07;5.63;;;;;;;;;;5094357;28;20207;-73
2021/09/30 06:22:39;;;;;;;11.80;6.75;;;;;;;;;;5094482;28;20199;-73
2021/09/30 06:25:07;;;;;;;7.80;5.43;;;;;;;;;;5094092;28;20202;-72
2021/09/30 06:27:34;;;;;;;9.63;5.23;;;;;;;;;;5094224;28;20193;-73
2021/09/30 06:30:03;;;;;;;8.30;4.70;;;;;;;;;;5094423;28;20485;-73
2021/09/30 06:32:30;;;;;;;11.65;4.75;;;;;;;;;;5094969;28;20453;-74
2021/09/30 06:34:58;;;;;;;5.93;4.93;;;;;;;;;;5095845;28;20286;-73
2021/09/30 06:37:25;;;;;;;5.32;4.80;;;;;;;;;;5094469;28;20200;-72
2021/09/30 06:39:52;;;;;;;14.00;5.45;;;;;;;;;;5093923;28;20654;-73
2021/09/30 06:42:19;;;;;;;15.35;5.45;;;;;;;;;;5094440;28;20197;-74
2021/09/30 06:44:46;;;;;;;9.20;5.35;;;;;;;;;;5093733;28;20204;-74
2021/09/30 06:47:15;;;;;;;10.82;5.45;;;;;;;;;;5094107;28;20193;-73
2021/09/30 06:49:42;;;;;;;12.63;5.03;;;;;;;;;;5093579;28;20223;-73
2021/09/30 06:52:09;;;;;;;8.70;4.97;;;;;;;;;;5093945;28;20212;-73
2021/09/30 06:54:36;;;;;;;5.40;4.90;;;;;;;;;;5093642;28;20442;-73
2021/09/30 06:57:04;;;;;;;5.43;4.93;;;;;;;;;;5093876;28;20191;-74
2021/09/30 06:59:34;;;;;;;15.25;5.07;;;;;;;;;;5094212;28;20636;-74
2021/09/30 07:02:06;;;;;;;9.57;4.97;;;;;;;;;;5094159;28;20189;-74
2021/09/30 07:04:36;;;;;;;5.18;4.18;;;;;;;;;;5094104;28;20187;-73
2021/09/30 07:07:04;;;;;;;7.78;3.90;;;;;;;;;;5094142;28;20292;-74
2021/09/30 07:09:31;;;;;;;6.55;4.40;;;;;;;;;;5093943;28;20221;-74
2021/09/30 07:11:59;;;;;;;6.78;3.97;;;;;;;;;;5093411;28;20194;-73
2021/09/30 07:14:26;;;;;;;7.30;4.93;;;;;;;;;;5093420;28;20651;-73
2021/09/30 07:16:54;;;;;;;8.85;4.07;;;;;;;;;;5093726;28;20292;-74
2021/09/30 07:19:21;;;;;;;5.97;3.83;;;;;;;;;;5093609;28;20690;-74
2021/09/30 07:21:50;;;;;;;6.95;3.85;;;;;;;;;;5093628;28;20193;-74
2021/09/30 07:24:17;;;;;;;9.57;4.97;;;;;;;;;;5093798;28;20615;-73
2021/09/30 07:26:45;;;;;;;6.90;4.40;;;;;;;;;;5093580;28;20445;-73
2021/09/30 07:29:12;;;;;;;13.70;5.00;;;;;;;;;;5093654;28;20478;-73
2021/09/30 07:31:40;;;;;;;4.43;2.83;;;;;;;;;;5094119;28;20450;-74
2021/09/30 07:34:11;;;;;;;12.83;4.83;;;;;;;;;;5093524;28;20479;-74
2021/09/30 07:36:38;;;;;;;5.15;3.55;;;;;;;;;;5093855;28;20434;-74
2021/09/30 07:39:07;;;;;;;7.37;3.80;;;;;;;;;;5093919;28;20189;-74
2021/09/30 07:41:34;;;;;;;8.87;3.90;;;;;;;;;;5093159;28;20978;-73
2021/09/30 07:44:03;;;;;;;8.65;3.75;;;;;;;;;;5093658;28;20446;-74
2021/09/30 07:46:30;;;;;;;8.57;4.43;;;;;;;;;;5093801;28;20193;-74
2021/09/30 07:48:57;;;;;;;4.80;3.00;;;;;;;;;;5093067;28;20443;-74
2021/09/30 07:51:25;;;;;;;7.00;3.95;;;;;;;;;;5093265;28;20905;-74
2021/09/30 07:53:52;;;;;;;5.50;4.07;;;;;;;;;;5093089;28;20196;-73
2021/09/30 07:56:22;;;;;;;6.77;3.43;;;;;;;;;;5093232;28;20432;-74
2021/09/30 07:58:49;;;;;;;9.93;4.00;;;;;;;;;;5093341;28;20504;-73
2021/09/30 08:01:16;;;;;;;9.85;3.88;;;;;;;;;;5093114;28;20454;-74
2021/09/30 08:03:43;;;;;;;7.03;3.57;;;;;;;;;;5093331;28;20190;-74
2021/09/30 08:06:11;;;;;;;7.73;3.30;;;;;;;;;;5094111;28;20436;-74
2021/09/30 08:08:38;;;;;;;5.37;3.30;;;;;;;;;;5096836;28;20446;-74
2021/09/30 08:11:05;;;;;;;10.57;3.87;;;;;;;;;;5096998;28;20565;-74
2021/09/30 08:13:34;;;;;;;6.20;2.97;;;;;;;;;;5097273;28;20445;-74
2021/09/30 08:16:01;;;;;;;12.13;4.37;;;;;;;;;;5096964;28;20879;-74
2021/09/30 08:18:28;;;;;;;10.93;3.90;;;;;;;;;;5096870;28;20450;-74
2021/09/30 08:20:56;;;;;;;9.50;3.50;;;;;;;;;;5097350;28;20802;-74
2021/09/30 08:23:24;;;;;;;10.20;3.57;;;;;;;;;;5096723;28;20436;-73
2021/09/30 08:25:51;;;;;;;7.67;3.33;;;;;;;;;;5096927;28;20452;-74
2021/09/30 08:28:20;;;;;;;10.80;3.17;;;;;;;;;;5097104;28;20450;-74
2021/09/30 08:30:51;;;;;;;7.93;3.27;;;;;;;;;;5096927;28;20556;-73
2021/09/30 08:33:22;;;;;;;4.17;3.37;;;;;;;;;;5096959;28;20511;-75
2021/09/30 08:35:50;;;;;;;8.50;4.00;;;;;;;;;;5096344;28;20439;-74
2021/09/30 08:38:17;;;;;;;11.20;3.50;;;;;;;;;;5096450;28;20444;-74
2021/09/30 08:40:46;;;;;;;9.23;3.27;;;;;;;;;;5095820;28;20539;-74
2021/09/30 08:43:13;;;;;;;10.23;2.67;;;;;;;;;;5096430;28;20496;-73
2021/09/30 08:45:41;;;;;;;12.03;3.43;;;;;;;;;;5097079;28;20523;-73
2021/09/30 08:48:09;;;;;;;4.80;2.70;;;;;;;;;;5096259;28;20534;-74
2021/09/30 08:50:40;;;;;;;7.40;2.50;;;;;;;;;;5096228;28;20471;-73
2021/09/30 08:53:08;;;;;;;4.97;2.47;;;;;;;;;;5096093;28;20424;-74
2021/09/30 08:55:35;;;;;;;7.13;2.83;;;;;;;;;;5096135;28;20432;-74
2021/09/30 08:58:03;;;;;;;9.73;2.50;;;;;;;;;;5095761;28;20444;-75
2021/09/30 09:00:38;;;;;;;3.97;2.90;;;;;;;;;;5096051;28;20440;-74
2021/09/30 09:03:06;;;;;;;7.00;2.23;;;;;;;;;;5096138;28;20430;-74
2021/09/30 09:05:37;;;;;;;4.73;2.53;;;;;;;;;;5095945;28;20443;-74
2021/09/30 09:08:05;;;;;;;8.53;3.63;;;;;;;;;;5095682;28;20424;-74
2021/09/30 09:10:33;;;;;;;5.83;2.33;;;;;;;;;;5095719;28;20483;-74
2021/09/30 09:13:04;;;;;;;11.07;2.77;;;;;;;;;;5096014;28;20436;-74
2021/09/30 09:15:42;;;;;;;7.20;2.90;;;;;;;;;;5095761;28;20450;-74
2021/09/30 09:18:13;;;;;;;6.27;2.30;;;;;;;;;;5096568;28;20434;-75
2021/09/30 09:21:02;;;;;;;5.33;2.23;;;;;;;;;;5095756;28;20435;-74
2021/09/30 09:23:30;;;;;;;7.13;2.90;;;;;;;;;;5096895;28;20422;-74
2021/09/30 09:26:11;;;;;;;10.10;3.20;;;;;;;;;;5095897;28;20439;-74
2021/09/30 09:28:39;;;;;;;4.17;2.30;;;;;;;;;;5095760;28;20566;-74
2021/09/30 09:31:06;;;;;;;5.80;2.33;;;;;;;;;;5095995;28;20574;-73
2021/09/30 09:33:35;;;;;;;3.50;2.70;;;;;;;;;;5095063;28;20455;-74
2021/09/30 09:36:06;;;;;;;6.73;2.77;;;;;;;;;;5095313;28;20550;-74
2021/09/30 09:38:45;;;;;;;6.93;2.30;;;;;;;;;;5095670;28;20446;-74
2021/09/30 09:41:16;;;;;;;6.83;2.53;;;;;;;;;;5095579;28;20445;-74
2021/09/30 09:43:44;;;;;;;7.03;3.00;;;;;;;;;;5095270;28;20432;-75
2021/09/30 09:46:12;;;;;;;9.13;2.90;;;;;;;;;;5095310;28;20493;-74
2021/09/30 09:48:39;;;;;;;6.23;2.17;;;;;;;;;;5094861;28;20447;-75
2021/09/30 09:51:11;;;;;;;5.50;2.70;;;;;;;;;;5095015;28;20481;-74
2021/09/30 09:53:38;;;;;;;6.30;2.47;;;;;;;;;;5094816;28;20462;-74
2021/09/30 09:56:10;;;;;;;13.93;2.47;;;;;;;;;;5094996;28;20436;-73
2021/09/30 09:58:44;;;;;;;22.70;3.50;;;;;;;;;;5094845;28;20444;-74
2021/09/30 10:01:11;;;;;;;11.53;2.27;;;;;;;;;;5094523;28;20955;-74
2021/09/30 10:03:39;;;;;;;10.10;2.20;;;;;;;;;;5094523;28;20933;-74
2021/09/30 10:06:07;;;;;;;6.53;2.57;;;;;;;;;;5094439;28;20440;-74
2021/09/30 10:08:35;;;;;;;5.50;1.80;;;;;;;;;;5094769;28;20447;-74
2021/09/30 10:11:03;;;;;;;6.17;2.00;;;;;;;;;;5094344;28;20471;-74
2021/09/30 10:13:34;;;;;;;5.40;2.33;;;;;;;;;;5094883;28;20446;-74
2021/09/30 10:16:01;;;;;;;8.73;2.53;;;;;;;;;;5094783;28;20432;-74
2021/09/30 10:18:29;;;;;;;12.40;2.63;;;;;;;;;;5094237;28;20452;-74
2021/09/30 10:20:57;;;;;;;7.00;2.13;;;;;;;;;;5094982;28;20448;-74
2021/09/30 10:23:25;;;;;;;8.97;1.90;;;;;;;;;;5094508;28;20440;-74
2021/09/30 10:25:54;;;;;;;5.87;1.90;;;;;;;;;;5094134;28;20934;-74
2021/09/30 10:28:21;;;;;;;3.10;2.10;;;;;;;;;;5093774;28;20448;-73
2021/09/30 10:30:55;;;;;;;6.30;2.60;;;;;;;;;;5093898;28;20459;-73
2021/09/30 10:33:23;;;;;;;7.33;2.37;;;;;;;;;;5094543;28;20932;-74
2021/09/30 10:35:52;;;;;;;4.93;2.20;;;;;;;;;;5094238;28;20524;-74
2021/09/30 10:38:21;;;;;;;2.83;1.60;;;;;;;;;;5094456;28;20439;-74
2021/09/30 10:41:06;;;;;;;3.43;2.60;;;;;;;;;;5094203;28;20440;-74
2021/09/30 10:43:34;;;;;;;4.30;1.83;;;;;;;;;;5093773;28;20479;-75
2021/09/30 10:46:02;;;;;;;6.57;2.30;;;;;;;;;;5094018;28;20526;-73
2021/09/30 10:48:42;;;;;;;9.03;2.50;;;;;;;;;;5093755;28;20437;-74
2021/09/30 10:51:10;;;;;;;11.73;2.43;;;;;;;;;;5093777;28;20980;-75
2021/09/30 10:53:56;;;;;;;4.87;2.50;;;;;;;;;;5093616;28;20975;-74
2021/09/30 10:56:40;;;;;;;3.20;1.90;;;;;;;;;;5093594;28;20440;-74
2021/09/30 10:59:26;;;;;;;4.13;2.47;;;;;;;;;;5092331;28;20943;-74
2021/09/30 11:02:04;;;;;;;9.33;2.40;;;;;;;;;;5093604;28;20945;-74
2021/09/30 11:04:51;;;;;;;3.77;2.63;;;;;;;;;;5093503;28;20528;-75
2021/09/30 11:07:18;;;;;;;2.80;1.30;;;;;;;;;;5093615;28;20444;-74
2021/09/30 11:10:12;;;;;;;5.33;2.13;;;;;;;;;;5093963;28;20460;-74
2021/09/30 11:12:39;;;;;;;7.50;1.90;;;;;;;;;;5093220;28;20469;-73
2021/09/30 11:15:07;;;;;;;7.80;2.13;;;;;;;;;;5093809;28;20444;-74
2021/09/30 11:17:36;;;;;;;4.03;2.60;;;;;;;;;;5093495;28;20441;-74
2021/09/30 11:20:21;;;;;;;4.77;1.97;;;;;;;;;;5093628;28;20801;-74
2021/09/30 11:22:48;;;;;;;4.80;2.20;;;;;;;;;;5093511;28;20522;-75
2021/09/30 11:25:16;;;;;;;4.30;2.40;;;;;;;;;;5093117;28;20436;-74
2021/09/30 11:27:43;;;;;;;2.07;1.53;;;;;;;;;;5093501;28;20523;-74
2021/09/30 11:30:26;;;;;;;9.00;3.03;;;;;;;;;;5093222;28;20475;-73
2021/09/30 11:33:01;;;;;;;6.20;2.17;;;;;;;;;;5093270;28;20991;-73
2021/09/30 11:35:29;;;;;;;5.20;2.10;;;;;;;;;;5093112;28;20513;-74
2021/09/30 11:37:56;;;;;;;6.43;2.30;;;;;;;;;;5093876;28;20437;-74
2021/09/30 11:40:23;;;;;;;3.60;2.00;;;;;;;;;;5092945;28;20536;-74
2021/09/30 11:42:53;;;;;;;4.27;1.70;;;;;;;;;;5097792;28;20463;-75
2021/09/30 11:45:21;;;;;;;4.30;1.63;;;;;;;;;;5097772;28;20917;-75
2021/09/30 11:47:52;;;;;;;3.53;2.60;;;;;;;;;;5097631;28;20448;-74
2021/09/30 11:50:22;;;;;;;7.33;2.53;;;;;;;;;;5097456;28;20441;-75
2021/09/30 11:52:57;;;;;;;3.40;3.13;;;;;;;;;;5097191;28;20476;-75
2021/09/30 11:55:27;;;;;;;2.37;2.17;;;;;;;;;;5096984;28;20441;-73
2021/09/30 11:57:55;;;;;;;4.67;1.90;;;;;;;;;;5097058;28;20536;-74
2021/09/30 12:00:23;;;;;;;4.30;2.00;;;;;;;;;;5097091;28;20436;-75
2021/09/30 12:02:54;;;;;;;5.03;1.87;;;;;;;;;;5097134;28;20942;-74
2021/09/30 12:05:25;;;;;;;2.97;1.47;;;;;;;;;;5097333;28;20488;-74
2021/09/30 12:07:52;;;;;;;1.50;1.40;;;;;;;;;;5097615;28;20421;-74
2021/09/30 12:10:19;;;;;;;4.47;2.00;;;;;;;;;;5097009;28;20595;-73
2021/09/30 12:12:47;;;;;;;3.17;1.60;;;;;;;;;;5096689;28;20587;-74
2021/09/30 12:15:15;;;;;;;4.87;1.63;;;;;;;;;;5096998;28;20440;-74
2021/09/30 12:17:43;;;;;;;2.53;2.20;;;;;;;;;;5097100;28;20597;-74
2021/09/30 12:20:12;;;;;;;4.50;1.70;;;;;;;;;;5096556;28;20439;-74
2021/09/30 12:22:41;;;;;;;3.73;1.77;;;;;;;;;;5096936;28;20441;-74
2021/09/30 12:25:10;;;;;;;5.67;2.17;;;;;;;;;;5096828;28;20437;-74
2021/09/30 12:27:38;;;;;;;5.40;1.87;;;;;;;;;;5096299;28;20446;-75
2021/09/30 12:30:08;;;;;;;7.43;2.20;;;;;;;;;;5097126;28;21007;-73
2021/09/30 12:32:43;;;;;;;7.80;2.53;;;;;;;;;;5096440;28;20563;-74
2021/09/30 12:35:12;;;;;;;4.07;1.93;;;;;;;;;;5096596;28;20423;-74
2021/09/30 12:37:42;;;;;;;7.07;2.87;;;;;;;;;;5096106;28;20961;-75
2021/09/30 12:40:11;;;;;;;4.80;2.50;;;;;;;;;;5096765;28;20430;-73
2021/09/30 12:42:39;;;;;;;3.43;2.03;;;;;;;;;;5096434;28;20440;-74
2021/09/30 12:45:07;;;;;;;2.37;1.80;;;;;;;;;;5096337;28;20451;-78
2021/09/30 12:47:38;;;;;;;3.80;2.10;;;;;;;;;;5100797;28;20514;-86
2021/09/30 12:50:07;;;;;;;5.30;1.80;;;;;;;;;;5098797;28;20432;-84
2021/09/30 12:52:34;;;;;;;6.30;1.90;;;;;;;;;;5096611;28;20515;-83
2021/09/30 12:55:05;;;;;;;13.43;1.87;;;;;;;;;;5096258;28;20449;-80
2021/09/30 12:57:33;;;;;;;3.07;2.13;;;;;;;;;;5097190;28;20435;-82
2021/09/30 13:00:05;;;;;;;6.03;2.30;;;;;;;;;;5096372;28;20893;-81
2021/09/30 13:02:33;;;;;;;6.77;2.30;;;;;;;;;;5097864;28;20532;-84
2021/09/30 13:05:00;;;;;;;4.00;2.77;;;;;;;;;;5095851;28;20961;-84
2021/09/30 13:07:42;;;;;;;4.40;2.10;;;;;;;;;;5095998;28;20923;-82
2021/09/30 13:10:12;;;;;;;3.10;1.90;;;;;;;;;;5096462;28;20424;-80
2021/09/30 13:12:39;;;;;;;4.23;2.30;;;;;;;;;;5095932;28;20571;-84
2021/09/30 13:15:06;;;;;;;4.77;1.73;;;;;;;;;;5096925;28;20440;-83
2021/09/30 13:17:34;;;;;;;5.30;2.40;;;;;;;;;;5096656;28;20448;-83
2021/09/30 13:20:04;;;;;;;3.90;2.23;;;;;;;;;;5096591;28;20527;-81
2021/09/30 13:22:33;;;;;;;5.23;2.17;;;;;;;;;;5097801;28;20433;-85
2021/09/30 13:25:01;;;;;;;4.70;1.90;;;;;;;;;;5097084;28;20532;-85
2021/09/30 13:27:30;;;;;;;4.90;1.70;;;;;;;;;;5096848;28;20440;-84
2021/09/30 13:29:58;;;;;;;3.90;1.70;;;;;;;;;;5096320;28;20505;-84
2021/09/30 13:32:27;;;;;;;4.10;1.63;;;;;;;;;;5096173;28;20481;-81
2021/09/30 13:34:55;;;;;;;4.30;1.67;;;;;;;;;;5096062;28;20626;-84
2021/09/30 13:37:22;;;;;;;3.60;1.60;;;;;;;;;;5096185;28;20441;-87
2021/09/30 13:39:49;;;;;;;2.13;1.87;;;;;;;;;;5097418;28;20885;-83
2021/09/30 13:42:16;;;;;;;2.63;1.60;;;;;;;;;;5096814;28;20446;-83
2021/09/30 13:44:45;;;;;;;7.77;1.97;;;;;;;;;;5097628;28;20776;-83
2021/09/30 13:47:12;;;;;;;4.17;1.90;;;;;;;;;;5094898;28;20448;-79
2021/09/30 13:49:39;;;;;;;2.83;1.60;;;;;;;;;;5094993;28;20898;-81
2021/09/30 13:52:07;;;;;;;5.83;1.77;;;;;;;;;;5095546;28;20828;-79
2021/09/30 13:54:34;;;;;;;1.60;1.50;;;;;;;;;;5094989;28;20440;-85
2021/09/30 13:57:01;;;;;;;3.37;1.87;;;;;;;;;;5094924;28;20925;-82
2021/09/30 13:59:29;;;;;;;2.33;1.40;;;;;;;;;;5095417;28;20539;-85
2021/09/30 14:01:57;;;;;;;2.00;1.40;;;;;;;;;;5096374;28;20532;-82
2021/09/30 14:04:24;;;;;;;2.73;1.70;;;;;;;;;;5095538;28;20797;-83
2021/09/30 14:06:55;;;;;;;1.87;1.57;;;;;;;;;;5094280;28;20483;-80
2021/09/30 14:09:22;;;;;;;5.80;1.70;;;;;;;;;;5096225;28;20429;-84
2021/09/30 14:11:49;;;;;;;4.90;2.00;;;;;;;;;;5099041;28;20485;-83
2021/09/30 14:14:17;;;;;;;3.57;1.70;;;;;;;;;;5104660;28;20446;-85
2021/09/30 14:16:49;;;;;;;4.13;1.77;;;;;;;;;;5095322;28;20439;-82
2021/09/30 14:19:18;;;;;;;3.00;1.80;;;;;;;;;;5095993;28;20430;-83
2021/09/30 14:21:45;;;;;;;2.60;1.40;;;;;;;;;;5095633;28;20568;-79
2021/09/30 14:24:12;;;;;;;1.60;1.50;;;;;;;;;;5095220;28;20451;-81
2021/09/30 14:26:40;;;;;;;2.33;2.13;;;;;;;;;;5094758;28;20440;-85
2021/09/30 14:29:07;;;;;;;4.40;1.93;;;;;;;;;;5094681;28;20468;-83
2021/09/30 14:31:34;;;;;;;7.97;2.00;;;;;;;;;;5094383;28;20437;-85
2021/09/30 14:34:02;;;;;;;7.50;1.83;;;;;;;;;;5094541;28;20448;-85
2021/09/30 14:36:30;;;;;;;1.83;1.30;;;;;;;;;;5094060;28;20440;-77
2021/09/30 14:38:57;;;;;;;4.23;1.83;;;;;;;;;;5093708;28;20442;-77
2021/09/30 14:41:27;;;;;;;4.37;1.80;;;;;;;;;;5094057;28;20813;-77
2021/09/30 14:43:54;;;;;;;2.93;1.50;;;;;;;;;;5093625;28;20493;-76
2021/09/30 14:46:22;;;;;;;6.80;1.80;;;;;;;;;;5093509;28;20497;-74
2021/09/30 14:48:49;;;;;;;3.73;2.07;;;;;;;;;;5093798;28;20523;-76
2021/09/30 14:51:17;;;;;;;3.53;2.23;;;;;;;;;;5093736;28;20533;-76
2021/09/30 14:53:45;;;;;;;4.60;1.90;;;;;;;;;;5093547;28;20483;-77
2021/09/30 14:56:13;;;;;;;2.13;1.67;;;;;;;;;;5093377;28;20534;-78
2021/09/30 14:58:40;;;;;;;3.70;2.77;;;;;;;;;;5093892;28;20445;-77
2021/09/30 15:01:08;;;;;;;4.13;1.70;;;;;;;;;;5093462;28;20541;-76
2021/09/30 15:03:35;;;;;;;7.50;2.47;;;;;;;;;;5093313;28;20944;-76
2021/09/30 15:06:03;;;;;;;3.63;2.03;;;;;;;;;;5093290;28;20444;-77
2021/09/30 15:08:35;;;;;;;4.53;2.30;;;;;;;;;;5093977;28;20499;-78
2021/09/30 15:11:04;;;;;;;3.30;1.63;;;;;;;;;;5093333;28;20517;-78
2021/09/30 15:13:31;;;;;;;5.47;1.67;;;;;;;;;;5093653;28;20511;-78
2021/09/30 15:16:00;;;;;;;1.60;1.50;;;;;;;;;;5093635;28;20441;-78
2021/09/30 15:18:39;;;;;;;2.37;1.80;;;;;;;;;;5093522;28;20805;-77
2021/09/30 15:23:56;;;;;;;7.37;1.93;;;;;;;;;;5088089;28;20424;-77
2021/09/30 15:26:25;;;;;;;3.43;1.77;;;;;;;;;;5093414;28;20443;-77
2021/09/30 15:28:53;;;;;;;7.30;2.30;;;;;;;;;;5092966;28;20479;-77
2021/09/30 15:31:21;;;;;;;6.60;1.87;;;;;;;;;;5093423;28;20474;-77
2021/09/30 15:33:49;;;;;;;5.63;2.07;;;;;;;;;;5093272;28;20900;-77
2021/09/30 15:36:16;;;;;;;2.90;2.33;;;;;;;;;;5093123;28;20448;-74
2021/09/30 15:38:44;;;;;;;3.27;2.43;;;;;;;;;;5093344;28;20868;-72
2021/09/30 15:41:12;;;;;;;4.63;2.50;;;;;;;;;;5093024;28;20432;-73
2021/09/30 15:43:41;;;;;;;2.90;1.90;;;;;;;;;;5093284;28;20445;-74
2021/09/30 15:46:17;;;;;;;4.40;1.93;;;;;;;;;;5093261;28;20441;-74
2021/09/30 15:48:44;;;;;;;3.67;2.10;;;;;;;;;;5093589;28;20429;-73
2021/09/30 15:51:12;;;;;;;2.23;2.00;;;;;;;;;;5093446;28;20441;-74
2021/09/30 15:53:41;;;;;;;9.77;2.97;;;;;;;;;;5092724;28;20557;-74
2021/09/30 15:56:14;;;;;;;2.37;1.70;;;;;;;;;;5092805;28;20452;-73
2021/09/30 15:58:43;;;;;;;3.20;1.80;;;;;;;;;;5093577;28;20527;-73
2021/09/30 16:01:11;;;;;;;4.77;1.83;;;;;;;;;;5093064;28;20467;-73
2021/09/30 16:03:39;;;;;;;3.80;1.70;;;;;;;;;;5093778;28;20541;-73
2021/09/30 16:06:06;;;;;;;12.10;2.27;;;;;;;;;;5093690;28;20444;-74
2021/09/30 16:08:33;;;;;;;4.77;2.20;;;;;;;;;;5092714;28;20447;-74
2021/09/30 16:11:00;;;;;;;5.73;2.00;;;;;;;;;;5092648;28;20439;-74
2021/09/30 16:13:28;;;;;;;3.80;1.77;;;;;;;;;;5092977;28;20500;-74
2021/09/30 16:15:56;;;;;;;5.50;1.60;;;;;;;;;;5093596;28;20998;-73
2021/09/30 16:18:24;;;;;;;5.57;2.60;;;;;;;;;;5093094;28;20876;-74
2021/09/30 16:20:51;;;;;;;10.17;1.90;;;;;;;;;;5093596;28;20437;-73
2021/09/30 16:23:18;;;;;;;6.43;2.30;;;;;;;;;;5093370;28;20449;-73
2021/09/30 16:25:47;;;;;;;5.47;2.40;;;;;;;;;;5092537;28;20447;-73
2021/09/30 16:28:15;;;;;;;4.33;2.60;;;;;;;;;;5095212;28;20543;-73
2021/09/30 16:30:42;;;;;;;8.60;2.03;;;;;;;;;;5096350;28;20498;-73
2021/09/30 16:33:11;;;;;;;2.57;2.10;;;;;;;;;;5096592;28;20476;-74
2021/09/30 16:35:38;;;;;;;6.50;2.40;;;;;;;;;;5096756;28;20437;-74
2021/09/30 16:38:07;;;;;;;3.33;1.87;;;;;;;;;;5096257;28;20964;-74
2021/09/30 16:40:34;;;;;;;8.67;3.03;;;;;;;;;;5096536;28;20441;-74
2021/09/30 16:43:07;;;;;;;7.80;2.23;;;;;;;;;;5097200;28;20779;-75
2021/09/30 16:45:35;;;;;;;7.40;1.90;;;;;;;;;;5096062;28;20431;-74
2021/09/30 16:48:02;;;;;;;6.60;2.60;;;;;;;;;;5096247;28;20527;-74
2021/09/30 16:50:30;;;;;;;3.23;2.63;;;;;;;;;;5096207;28;20443;-74
2021/09/30 16:52:58;;;;;;;7.87;2.70;;;;;;;;;;5096369;28;20481;-74
2021/09/30 16:55:25;;;;;;;5.77;2.37;;;;;;;;;;5095837;28;20934;-74
2021/09/30 16:57:52;;;;;;;7.63;2.20;;;;;;;;;;5096050;28;20487;-74
2021/09/30 17:00:21;;;;;;;9.90;2.50;;;;;;;;;;5096160;28;20865;-74
2021/09/30 17:02:49;;;;;;;9.43;2.17;;;;;;;;;;5095678;28;20500;-74
2021/09/30 17:05:17;;;;;;;10.50;2.03;;;;;;;;;;5095715;28;20450;-74
2021/09/30 17:07:45;;;;;;;2.87;2.10;;;;;;;;;;5095191;28;20793;-74
2021/09/30 17:10:14;;;;;;;7.30;2.53;;;;;;;;;;5095298;28;20432;-74
2021/09/30 17:12:41;;;;;;;6.10;2.33;;;;;;;;;;5095347;28;20852;-73
2021/09/30 17:15:10;;;;;;;7.10;2.80;;;;;;;;;;5095368;28;20879;-74
2021/09/30 17:17:37;;;;;;;6.63;3.80;;;;;;;;;;5095365;28;20442;-74
2021/09/30 17:20:05;;;;;;;7.07;2.80;;;;;;;;;;5094986;28;20453;-74
2021/09/30 17:22:32;;;;;;;3.03;1.90;;;;;;;;;;5095098;28;20497;-74
2021/09/30 17:25:01;;;;;;;4.77;2.40;;;;;;;;;;5095330;28;20546;-73
2021/09/30 17:27:28;;;;;;;4.43;2.47;;;;;;;;;;5095688;28;20459;-73
2021/09/30 17:29:55;;;;;;;5.07;2.50;;;;;;;;;;5095895;28;20481;-74
2021/09/30 17:32:24;;;;;;;4.50;2.13;;;;;;;;;;5095610;28;20543;-74
2021/09/30 17:34:51;;;;;;;5.80;2.30;;;;;;;;;;5095330;28;20607;-74